Time;durP1;ratioP1;P1;durP2;ratioP2;P2;SDS_P1;SDS_P2;PMS_P1;PMS_P2;Temp;Humidity;BMP_temperature;BMP_pressure;BME280_temperature;BME280_humidity;BME280_pressure;Samples;Min_cycle;Max_cycle;Signal;HPM_P1;HPM_P2
2023/01/01 00:00:22;;;;;;;21.60;15.00;;;;;;;12.48;78.29;100261.59;108584;1276;37121;-72
2023/01/01 00:03:19;;;;;;;16.90;11.90;;;;;;;12.50;78.21;100267.48;108550;1259;37321;-73
2023/01/01 00:05:54;;;;;;;12.90;10.00;;;;;;;12.49;78.09;100268.02;108300;1261;37269;-75
2023/01/01 00:08:29;;;;;;;11.90;9.20;;;;;;;12.49;78.09;100269.27;108471;1261;172397;-73
2023/01/01 00:11:07;;;;;;;13.20;10.80;;;;;;;12.49;78.11;100270.13;108568;1259;37038;-76
2023/01/01 00:13:44;;;;;;;11.90;8.50;;;;;;;12.50;78.16;100264.68;108590;1259;37106;-75
2023/01/01 00:16:28;;;;;;;14.40;10.50;;;;;;;12.50;78.04;100264.51;106234;1266;3011014;-75
2023/01/01 00:19:05;;;;;;;10.70;8.10;;;;;;;12.48;77.94;100263.18;108585;1267;37082;-75
2023/01/01 00:21:41;;;;;;;9.80;6.80;;;;;;;12.47;78.07;100262.52;108422;1256;37053;-77
2023/01/01 00:24:18;;;;;;;12.00;8.40;;;;;;;12.47;78.00;100260.79;108583;1259;37040;-76
2023/01/01 00:26:55;;;;;;;8.60;6.10;;;;;;;12.47;77.86;100265.15;108399;1263;38759;-74
2023/01/01 00:29:32;;;;;;;11.10;6.70;;;;;;;12.48;77.83;100259.85;108545;1277;37695;-75
2023/01/01 00:32:06;;;;;;;20.10;11.60;;;;;;;12.49;77.92;100262.94;108578;1259;37102;-74
2023/01/01 00:34:41;;;;;;;12.10;7.60;;;;;;;12.49;77.91;100263.98;108474;1257;37052;-75
2023/01/01 00:37:17;;;;;;;13.70;7.80;;;;;;;12.49;77.82;100262.80;108595;1259;36425;-74
2023/01/01 00:39:56;;;;;;;11.50;7.60;;;;;;;12.49;77.79;100268.70;108594;1259;36886;-73
2023/01/01 00:42:33;;;;;;;10.80;6.50;;;;;;;12.49;77.58;100273.28;108611;1270;37012;-74
2023/01/01 00:45:10;;;;;;;9.20;6.90;;;;;;;12.50;77.77;100271.14;108546;1268;36954;-71
2023/01/01 00:47:46;;;;;;;10.90;7.30;;;;;;;12.49;77.72;100267.84;108561;1259;37154;-73
2023/01/01 00:50:21;;;;;;;11.10;7.30;;;;;;;12.49;77.72;100268.23;108397;1260;37224;-73
2023/01/01 00:52:56;;;;;;;11.80;6.90;;;;;;;12.51;77.69;100278.08;108549;1254;37379;-75
2023/01/01 00:55:34;;;;;;;8.50;5.80;;;;;;;12.51;77.56;100277.04;108456;1259;37276;-72
2023/01/01 00:58:13;;;;;;;8.80;6.90;;;;;;;12.49;77.57;100275.89;108614;1259;37195;-74
2023/01/01 01:00:55;;;;;;;9.30;6.60;;;;;;;12.46;77.52;100272.36;108580;1254;37067;-75
2023/01/01 01:03:33;;;;;;;12.80;9.20;;;;;;;12.45;77.63;100273.84;108556;1259;37620;-76
2023/01/01 01:06:20;;;;;;;10.10;5.70;;;;;;;12.44;77.53;100277.23;108399;1256;37751;-75
2023/01/01 01:08:56;;;;;;;9.40;6.60;;;;;;;12.43;77.49;100280.06;108395;1256;37196;-76
2023/01/01 01:11:33;;;;;;;8.90;6.60;;;;;;;12.42;77.48;100279.74;108547;1259;36969;-73
2023/01/01 01:14:13;;;;;;;8.20;5.50;;;;;;;12.40;77.52;100279.98;108550;1258;37194;-73
2023/01/01 01:16:52;;;;;;;7.10;5.20;;;;;;;12.40;77.44;100286.48;108563;1259;37490;-73
2023/01/01 01:19:27;;;;;;;8.50;5.10;;;;;;;12.39;77.41;100278.45;108400;1261;37024;-75
2023/01/01 01:22:04;;;;;;;18.40;11.20;;;;;;;12.39;77.45;100285.80;108589;1277;37312;-77
2023/01/01 01:24:40;;;;;;;11.50;7.60;;;;;;;12.38;77.40;100291.65;108625;1260;36632;-75
2023/01/01 01:27:21;;;;;;;8.60;5.70;;;;;;;12.35;77.43;100288.09;108499;1260;37210;-76
2023/01/01 01:29:56;;;;;;;7.20;5.60;;;;;;;12.34;77.44;100288.13;108595;1263;37189;-73
2023/01/01 01:32:34;;;;;;;7.00;5.30;;;;;;;12.35;77.37;100282.85;108595;1259;37541;-72
2023/01/01 01:35:15;;;;;;;8.20;5.80;;;;;;;12.36;77.29;100282.79;108595;1259;37189;-73
2023/01/01 01:37:52;;;;;;;7.30;5.40;;;;;;;12.38;77.26;100286.56;108625;1259;38397;-74
2023/01/01 01:40:26;;;;;;;6.10;5.20;;;;;;;12.38;77.13;100285.48;108661;1259;37237;-73
2023/01/01 01:43:00;;;;;;;6.10;4.70;;;;;;;12.40;77.18;100280.52;108628;1277;37317;-71
2023/01/01 01:45:37;;;;;;;7.30;5.40;;;;;;;12.42;77.14;100278.87;108587;1254;37017;-70
2023/01/01 01:48:12;;;;;;;6.70;5.00;;;;;;;12.43;76.88;100280.23;108621;1272;37370;-72
2023/01/01 01:50:47;;;;;;;7.80;6.10;;;;;;;12.43;76.84;100283.75;108419;1260;36916;-77
2023/01/01 01:53:27;;;;;;;6.70;4.90;;;;;;;12.43;76.69;100285.14;108683;1277;37144;-74
2023/01/01 01:56:07;;;;;;;6.80;5.00;;;;;;;12.43;76.76;100283.91;108658;1277;37013;-74
2023/01/01 01:58:46;;;;;;;7.70;5.10;;;;;;;12.43;76.61;100277.05;108627;1254;37151;-76
2023/01/01 02:01:28;;;;;;;7.60;5.00;;;;;;;12.44;76.32;100281.76;108586;1270;37028;-75
2023/01/01 02:04:04;;;;;;;6.60;4.60;;;;;;;12.45;76.43;100277.86;108637;1271;37017;-74
2023/01/01 02:06:43;;;;;;;6.70;4.90;;;;;;;12.45;76.15;100271.56;108598;1277;38210;-74
2023/01/01 02:09:20;;;;;;;5.80;4.60;;;;;;;12.44;76.24;100266.35;108584;1277;37341;-77
2023/01/01 02:11:57;;;;;;;;;;;;;;;12.43;76.07;100267.79;108636;1260;36061;-75
2023/01/01 02:14:32;;;;;;;6.30;4.50;;;;;;;12.41;76.10;100275.24;108587;1277;37107;-73
2023/01/01 02:17:26;;;;;;;6.90;5.00;;;;;;;12.43;76.02;100275.34;108650;1259;36899;-75
2023/01/01 02:20:25;;;;;;;7.00;5.30;;;;;;;12.45;75.82;100276.82;108528;1272;37305;-74
2023/01/01 02:23:51;;;;;;;9.00;5.60;;;;;;;12.45;75.83;100275.22;108640;1255;37039;-74
2023/01/01 02:26:47;;;;;;;9.90;5.80;;;;;;;12.42;75.68;100276.92;108521;1264;37161;-75
2023/01/01 02:29:34;;;;;;;7.90;5.30;;;;;;;12.42;75.60;100282.20;108330;1261;37035;-74
2023/01/01 02:32:16;;;;;;;7.90;5.10;;;;;;;12.42;75.44;100279.90;108616;1260;36132;-74
2023/01/01 02:34:58;;;;;;;7.70;5.70;;;;;;;12.44;75.41;100277.02;108631;1263;37059;-77
2023/01/01 02:37:33;;;;;;;7.40;4.80;;;;;;;12.46;75.19;100274.10;108611;1277;38388;-72
2023/01/01 02:40:14;;;;;;;6.70;5.60;;;;;;;12.47;75.20;100266.56;108644;1259;36163;-76
2023/01/01 02:42:49;;;;;;;19.80;15.20;;;;;;;12.45;75.22;100261.04;108620;1262;38545;-73
2023/01/01 02:45:25;;;;;;;32.50;24.50;;;;;;;12.48;75.10;100255.84;108578;1277;37288;-74
2023/01/01 02:48:29;;;;;;;7.90;5.40;;;;;;;12.50;74.80;100257.32;108514;1259;37240;-74
2023/01/01 02:51:21;;;;;;;6.90;5.00;;;;;;;12.50;74.83;100258.20;108422;1262;36972;-74
2023/01/01 02:54:01;;;;;;;8.10;5.10;;;;;;;12.52;74.61;100259.48;108320;1262;36960;-76
2023/01/01 02:56:42;;;;;;;6.70;4.90;;;;;;;12.57;74.65;100257.14;108628;1277;37224;-74
2023/01/01 03:02:38;;;;;;;7.50;4.80;;;;;;;12.58;74.16;100248.67;108310;1258;37076;-77
2023/01/01 03:05:19;;;;;;;6.90;4.40;;;;;;;12.59;73.90;100242.69;108632;1259;37439;-79
2023/01/01 03:08:03;;;;;;;6.30;4.40;;;;;;;12.62;73.88;100248.31;108450;1260;37093;-76
2023/01/01 03:10:46;;;;;;;5.40;4.50;;;;;;;12.65;73.69;100244.48;108554;1256;38604;-76
2023/01/01 03:13:24;;;;;;;6.40;4.50;;;;;;;12.71;73.71;100248.61;108604;1277;38118;-75
2023/01/01 03:16:08;;;;;;;5.30;4.50;;;;;;;12.74;73.59;100236.04;108565;1277;37263;-74
2023/01/01 03:18:47;;;;;;;5.30;4.30;;;;;;;12.74;73.18;100239.89;108497;1277;174200;-76
2023/01/01 03:21:27;;;;;;;5.20;4.40;;;;;;;12.75;73.00;100236.52;108607;1259;37112;-74
2023/01/01 03:24:03;;;;;;;5.40;4.00;;;;;;;12.75;72.97;100240.69;108613;1259;37533;-73
2023/01/01 03:26:39;;;;;;;5.80;4.30;;;;;;;12.77;72.88;100244.10;108644;1259;37256;-76
2023/01/01 03:29:14;;;;;;;6.70;3.80;;;;;;;12.79;72.53;100259.58;108570;1258;38048;-77
2023/01/01 03:31:49;;;;;;;5.30;4.00;;;;;;;12.81;72.78;100272.99;108622;1277;36095;-76
2023/01/01 03:34:28;;;;;;;7.50;3.90;;;;;;;12.80;72.35;100272.82;108607;1269;37178;-77
2023/01/01 03:37:05;;;;;;;7.50;4.70;;;;;;;12.80;72.31;100282.45;108633;1265;37144;-77
2023/01/01 03:39:47;;;;;;;5.40;4.20;;;;;;;12.79;72.26;100285.84;108674;1255;37491;-78
2023/01/01 03:42:29;;;;;;;5.90;4.30;;;;;;;12.79;72.12;100289.70;108571;1277;37006;-77
2023/01/01 03:45:11;;;;;;;7.00;4.30;;;;;;;12.81;72.07;100294.30;108562;1277;36967;-77
2023/01/01 03:47:53;;;;;;;6.10;4.40;;;;;;;12.84;72.06;100298.88;108436;1268;36989;-74
2023/01/01 03:50:41;;;;;;;5.10;4.30;;;;;;;12.86;71.92;100299.32;107939;1259;902220;-75
2023/01/01 03:53:23;;;;;;;5.20;3.90;;;;;;;12.87;71.81;100302.40;108591;1277;38711;-75
2023/01/01 03:56:04;;;;;;;6.10;4.50;;;;;;;12.86;71.66;100298.77;108614;1277;36397;-76
2023/01/01 03:58:49;;;;;;;5.70;4.00;;;;;;;12.85;71.40;100299.56;108443;1277;187120;-76
2023/01/01 04:01:31;;;;;;;6.40;3.90;;;;;;;12.84;71.33;100304.99;108564;1258;37386;-78
2023/01/01 04:04:06;;;;;;;6.10;3.90;;;;;;;12.85;71.34;100301.30;108600;1255;37046;-75
2023/01/01 04:06:42;;;;;;;4.90;4.10;;;;;;;12.85;71.26;100302.33;108435;1262;37986;-76
2023/01/01 04:09:24;;;;;;;6.50;4.20;;;;;;;12.85;71.20;100304.80;108591;1265;37152;-75
2023/01/01 04:12:04;;;;;;;6.90;4.40;;;;;;;12.83;71.21;100304.04;108599;1259;37513;-74
2023/01/01 04:14:45;;;;;;;4.50;4.00;;;;;;;12.79;71.03;100305.98;108475;1259;37461;-74
2023/01/01 04:17:25;;;;;;;6.70;4.30;;;;;;;12.74;71.07;100310.42;108585;1277;38493;-75
2023/01/01 04:20:01;;;;;;;6.00;4.00;;;;;;;12.69;71.21;100318.54;108583;1261;37674;-77
2023/01/01 04:22:36;;;;;;;5.80;3.50;;;;;;;12.66;71.09;100319.01;108589;1277;37031;-75
2023/01/01 04:25:17;;;;;;;4.90;3.90;;;;;;;12.67;71.21;100321.77;108593;1277;37229;-73
2023/01/01 04:27:54;;;;;;;6.20;3.90;;;;;;;12.68;71.00;100316.83;108592;1277;36994;-76
2023/01/01 04:30:30;;;;;;;4.20;3.70;;;;;;;12.70;71.00;100322.33;108558;1265;37045;-72
2023/01/01 04:33:05;;;;;;;6.00;3.80;;;;;;;12.70;70.97;100318.64;108411;1272;37001;-76
2023/01/01 04:35:40;;;;;;;5.20;4.30;;;;;;;12.70;70.82;100325.49;108483;1266;37601;-79
2023/01/01 04:38:17;;;;;;;5.60;4.10;;;;;;;12.69;70.69;100328.50;108649;1259;37394;-75
2023/01/01 04:41:00;;;;;;;4.30;3.40;;;;;;;12.68;70.74;100328.39;108432;1262;37039;-74
2023/01/01 04:43:34;;;;;;;4.90;4.20;;;;;;;12.68;70.58;100328.40;108577;1259;36339;-75
2023/01/01 04:46:10;;;;;;;5.40;3.90;;;;;;;12.69;70.62;100330.44;108434;1256;39040;-76
2023/01/01 04:48:47;;;;;;;6.50;4.30;;;;;;;12.71;70.61;100327.70;108297;1260;36486;-75
2023/01/01 04:51:25;;;;;;;6.10;4.30;;;;;;;12.72;70.47;100329.25;108407;1262;38916;-76
2023/01/01 04:54:01;;;;;;;4.90;4.00;;;;;;;12.70;70.51;100331.07;108583;1265;36999;-75
2023/01/01 04:56:38;;;;;;;5.20;3.80;;;;;;;12.68;70.17;100329.79;108646;1277;36954;-77
2023/01/01 04:59:15;;;;;;;5.70;4.40;;;;;;;12.66;70.21;100331.10;108472;1267;37022;-77
2023/01/01 05:01:52;;;;;;;4.20;3.70;;;;;;;12.64;70.23;100332.77;108430;1261;37082;-77
2023/01/01 05:04:26;;;;;;;4.90;3.70;;;;;;;12.64;70.32;100341.33;108598;1259;36968;-77
2023/01/01 05:07:04;;;;;;;4.90;3.90;;;;;;;12.65;70.01;100349.70;108443;1268;38485;-77
2023/01/01 05:09:42;;;;;;;6.10;4.00;;;;;;;12.67;70.15;100341.21;108282;1263;174609;-76
2023/01/01 05:12:19;;;;;;;4.60;4.10;;;;;;;12.68;69.98;100338.54;108591;1255;37081;-76
2023/01/01 05:14:57;;;;;;;6.60;4.20;;;;;;;12.67;70.03;100333.86;108578;1256;37128;-78
2023/01/01 05:17:38;;;;;;;4.70;3.80;;;;;;;12.65;69.96;100330.79;108433;1266;40101;-76
2023/01/01 05:20:14;;;;;;;5.30;3.90;;;;;;;12.62;69.86;100329.36;108560;1262;36102;-77
2023/01/01 05:22:56;;;;;;;5.50;3.80;;;;;;;12.57;70.02;100335.16;108588;1277;37229;-74
2023/01/01 05:25:38;;;;;;;4.90;3.60;;;;;;;12.55;69.93;100334.92;108601;1260;38278;-74
2023/01/01 05:28:15;;;;;;;4.60;3.70;;;;;;;12.55;69.78;100339.13;108434;1277;39231;-75
2023/01/01 05:30:53;;;;;;;5.30;3.80;;;;;;;12.56;69.98;100345.21;108582;1259;37105;-74
2023/01/01 05:33:29;;;;;;;4.20;3.60;;;;;;;12.56;69.87;100343.45;108612;1259;36761;-77
2023/01/01 05:36:07;;;;;;;5.60;3.70;;;;;;;12.55;69.73;100352.08;108568;1275;37110;-77
2023/01/01 05:38:45;;;;;;;5.00;3.70;;;;;;;12.53;69.76;100353.91;108428;1262;37097;-74
2023/01/01 05:41:25;;;;;;;5.10;4.10;;;;;;;12.50;69.78;100360.02;108607;1259;37103;-75
2023/01/01 05:44:01;;;;;;;4.70;3.50;;;;;;;12.48;69.75;100362.05;108619;1258;36961;-72
2023/01/01 05:46:38;;;;;;;4.40;3.60;;;;;;;12.47;69.70;100362.45;108510;1256;37079;-74
2023/01/01 05:49:16;;;;;;;4.70;3.40;;;;;;;12.48;69.47;100367.47;108596;1277;37633;-74
2023/01/01 05:51:53;;;;;;;6.40;3.60;;;;;;;12.49;69.63;100368.98;108513;1277;36916;-77
2023/01/01 05:54:27;;;;;;;6.30;3.50;;;;;;;12.49;69.59;100373.01;108610;1277;37254;-79
2023/01/01 05:57:04;;;;;;;5.90;3.80;;;;;;;12.49;69.56;100372.32;108601;1255;36983;-78
2023/01/01 05:59:40;;;;;;;5.90;4.00;;;;;;;12.48;69.48;100378.30;108661;1259;38725;-80
2023/01/01 06:02:17;;;;;;;6.20;3.50;;;;;;;12.46;69.44;100384.86;108600;1265;37064;-77
2023/01/01 06:04:51;;;;;;;4.40;3.30;;;;;;;12.43;69.54;100379.58;108432;1258;36591;-77
2023/01/01 06:07:26;;;;;;;6.80;3.90;;;;;;;12.43;69.32;100385.02;108591;1268;36951;-74
2023/01/01 06:10:01;;;;;;;5.00;3.90;;;;;;;12.43;69.44;100388.16;108610;1263;38370;-75
2023/01/01 06:12:38;;;;;;;4.30;3.50;;;;;;;12.43;69.35;100389.23;108691;1255;37387;-72
2023/01/01 06:15:15;;;;;;;5.40;3.90;;;;;;;12.41;69.19;100387.38;108474;1261;37554;-76
2023/01/01 06:17:50;;;;;;;4.50;3.30;;;;;;;12.39;69.16;100394.78;108684;1260;38281;-78
2023/01/01 06:20:26;;;;;;;4.40;3.40;;;;;;;12.38;69.16;100392.94;108416;1268;36992;-76
2023/01/01 06:23:00;;;;;;;5.10;3.50;;;;;;;12.34;69.14;100393.27;108612;1272;37572;-78
2023/01/01 06:25:39;;;;;;;5.30;3.90;;;;;;;12.30;69.18;100393.11;108081;1268;558509;-80
2023/01/01 06:28:14;;;;;;;9.60;3.30;;;;;;;12.27;69.25;100400.61;108473;1262;172395;-75
2023/01/01 06:30:48;;;;;;;4.20;3.40;;;;;;;12.23;69.38;100403.73;108562;1277;37109;-75
2023/01/01 06:33:28;;;;;;;4.10;3.50;;;;;;;12.20;69.33;100412.44;108577;1256;38774;-74
2023/01/01 06:36:05;;;;;;;4.40;3.50;;;;;;;12.18;69.27;100411.65;108541;1270;37595;-74
2023/01/01 06:38:40;;;;;;;5.20;3.60;;;;;;;12.15;69.32;100409.86;108564;1277;37462;-74
2023/01/01 06:41:19;;;;;;;5.10;3.80;;;;;;;12.12;69.40;100412.80;108568;1269;37565;-75
2023/01/01 06:43:57;;;;;;;4.80;3.60;;;;;;;12.08;69.51;100416.30;107754;1262;903310;-75
2023/01/01 06:46:32;;;;;;;5.50;3.40;;;;;;;12.04;69.52;100415.60;108627;1260;37294;-75
2023/01/01 06:49:10;;;;;;;5.10;3.20;;;;;;;12.02;69.49;100410.08;108591;1277;36990;-76
2023/01/01 06:51:45;;;;;;;4.70;3.50;;;;;;;12.06;69.59;100413.77;108611;1259;37303;-77
2023/01/01 06:54:21;;;;;;;4.90;3.80;;;;;;;12.09;69.38;100415.54;108603;1277;36118;-76
2023/01/01 06:56:56;;;;;;;4.90;3.90;;;;;;;12.11;69.36;100421.04;108627;1259;38093;-75
2023/01/01 06:59:34;;;;;;;3.90;3.30;;;;;;;12.12;69.38;100420.86;108563;1275;37020;-74
2023/01/01 07:02:12;;;;;;;5.70;3.80;;;;;;;12.12;69.37;100425.23;108453;1262;37502;-75
2023/01/01 07:04:53;;;;;;;5.70;3.70;;;;;;;12.11;69.11;100427.70;108630;1277;37141;-76
2023/01/01 07:07:31;;;;;;;5.30;3.30;;;;;;;12.10;69.46;100432.63;108450;1263;37733;-75
2023/01/01 07:10:10;;;;;;;3.70;2.80;;;;;;;12.10;69.37;100436.65;108601;1259;37079;-75
2023/01/01 07:12:50;;;;;;;5.20;3.50;;;;;;;12.11;69.10;100435.20;108583;1277;37065;-73
2023/01/01 07:15:30;;;;;;;6.00;3.40;;;;;;;12.13;69.17;100435.65;108536;1270;37067;-72
2023/01/01 07:18:08;;;;;;;4.60;3.50;;;;;;;12.16;69.06;100435.19;108632;1257;37167;-75
2023/01/01 07:20:49;;;;;;;5.90;3.40;;;;;;;12.19;69.02;100439.45;108550;1259;36870;-74
2023/01/01 07:23:24;;;;;;;5.90;3.60;;;;;;;12.20;68.92;100442.34;108630;1259;36244;-73
2023/01/01 07:26:02;;;;;;;7.70;3.80;;;;;;;12.22;68.80;100454.17;108594;1259;38732;-74
2023/01/01 07:28:39;;;;;;;5.90;3.70;;;;;;;12.24;68.72;100457.06;108604;1260;37589;-76
2023/01/01 07:31:16;;;;;;;6.00;3.80;;;;;;;12.25;68.60;100461.72;108414;1262;37162;-75
2023/01/01 07:33:52;;;;;;;3.80;3.00;;;;;;;12.27;68.78;100463.23;108577;1256;37098;-75
2023/01/01 07:36:26;;;;;;;5.40;3.30;;;;;;;12.31;68.55;100471.09;108593;1259;38907;-76
2023/01/01 07:39:02;;;;;;;8.20;3.50;;;;;;;12.35;68.43;100471.95;108534;1267;37188;-75
2023/01/01 07:41:43;;;;;;;5.70;3.60;;;;;;;12.43;68.47;100473.52;108482;1261;37851;-75
2023/01/01 07:44:22;;;;;;;5.40;3.40;;;;;;;12.50;68.46;100471.65;108403;1257;37625;-73
2023/01/01 07:47:05;;;;;;;12.10;3.40;;;;;;;12.57;68.19;100475.17;108570;1259;37068;-74
2023/01/01 07:49:44;;;;;;;6.00;4.00;;;;;;;12.71;67.95;100477.36;108599;1265;37112;-74
2023/01/01 07:52:21;;;;;;;6.30;3.80;;;;;;;12.82;67.76;100478.80;108427;1277;37136;-73
2023/01/01 07:54:56;;;;;;;5.70;3.70;;;;;;;12.90;67.49;100484.88;108603;1277;36964;-75
2023/01/01 07:57:36;;;;;;;6.60;3.90;;;;;;;12.98;67.28;100486.65;108576;1260;37230;-74
2023/01/01 08:00:21;;;;;;;4.00;3.30;;;;;;;13.04;67.04;100490.38;108571;1264;37084;-75
2023/01/01 08:03:04;;;;;;;4.90;3.40;;;;;;;13.08;66.68;100496.85;108567;1277;38119;-74
2023/01/01 08:05:39;;;;;;;5.60;3.60;;;;;;;13.12;66.60;100501.41;108445;1268;172286;-74
2023/01/01 08:08:16;;;;;;;4.70;3.20;;;;;;;13.15;66.36;100507.20;108430;1264;37121;-73
2023/01/01 08:10:56;;;;;;;5.70;3.40;;;;;;;13.17;66.46;100516.22;108592;1277;37005;-73
2023/01/01 08:13:30;;;;;;;5.80;3.20;;;;;;;13.18;66.14;100516.19;108502;1254;174384;-75
2023/01/01 08:16:07;;;;;;;6.50;3.90;;;;;;;13.17;65.92;100519.52;108570;1277;37328;-73
2023/01/01 08:18:46;;;;;;;4.80;3.40;;;;;;;13.18;65.80;100517.57;107888;1277;915813;-74
2023/01/01 08:21:24;;;;;;;7.40;4.10;;;;;;;13.17;65.86;100520.08;108605;1277;37225;-76
2023/01/01 08:24:04;;;;;;;5.00;3.40;;;;;;;13.17;65.77;100519.21;108415;1262;37280;-73
2023/01/01 08:26:42;;;;;;;5.30;3.50;;;;;;;13.17;65.72;100520.93;108595;1259;37921;-74
2023/01/01 08:29:19;;;;;;;5.20;3.10;;;;;;;13.20;65.66;100524.34;108406;1260;37202;-74
2023/01/01 08:31:56;;;;;;;5.60;3.80;;;;;;;13.23;65.79;100526.86;108551;1256;36997;-75
2023/01/01 08:34:34;;;;;;;7.30;3.30;;;;;;;13.26;65.71;100531.95;108568;1277;37318;-77
2023/01/01 08:37:17;;;;;;;5.70;3.40;;;;;;;13.28;65.67;100530.26;108569;1259;37225;-75
2023/01/01 08:39:57;;;;;;;5.40;3.30;;;;;;;13.30;65.60;100531.24;108584;1273;37131;-75
2023/01/01 08:42:39;;;;;;;5.40;3.50;;;;;;;13.33;65.60;100535.28;108434;1260;36092;-75
2023/01/01 08:45:14;;;;;;;7.10;3.40;;;;;;;13.38;65.46;100539.27;107899;1277;902398;-74
2023/01/01 08:47:48;;;;;;;6.50;3.20;;;;;;;13.45;65.41;100540.90;108588;1277;37200;-75
2023/01/01 08:50:25;;;;;;;6.60;3.20;;;;;;;13.52;65.31;100541.98;108460;1277;172271;-75
2023/01/01 08:52:59;;;;;;;6.70;3.40;;;;;;;13.60;65.15;100546.33;108574;1275;37008;-78
2023/01/01 08:55:33;;;;;;;5.10;2.90;;;;;;;13.68;65.00;100547.67;108443;1262;37675;-77
2023/01/01 08:58:12;;;;;;;6.00;3.50;;;;;;;13.78;64.86;100550.52;108595;1277;38097;-74
2023/01/01 09:00:45;;;;;;;;;;;;;;;13.90;64.71;100552.73;108584;1260;36157;-74
2023/01/01 09:03:21;;;;;;;6.10;3.30;;;;;;;14.02;65.07;100556.03;108432;1256;38643;-79
2023/01/01 09:05:58;;;;;;;5.00;3.30;;;;;;;14.21;64.45;100553.65;108613;1277;37262;-80
2023/01/01 09:08:32;;;;;;;5.00;2.80;;;;;;;14.45;64.21;100558.42;108647;1277;37011;-78
2023/01/01 09:11:17;;;;;;;9.30;3.50;;;;;;;14.73;63.98;100554.38;108565;1259;37303;-75
2023/01/01 09:13:54;;;;;;;7.60;3.70;;;;;;;15.05;63.27;100557.58;108571;1277;36524;-74
2023/01/01 09:16:28;;;;;;;7.60;3.50;;;;;;;15.34;63.12;100553.88;108608;1268;39130;-76
2023/01/01 09:19:02;;;;;;;8.00;3.70;;;;;;;15.64;62.55;100556.48;108548;1277;37503;-75
2023/01/01 09:21:44;;;;;;;8.60;3.80;;;;;;;15.87;61.26;100561.52;108409;1270;37217;-76
2023/01/01 09:24:19;;;;;;;7.60;3.40;;;;;;;16.00;60.31;100556.91;108423;1262;37639;-77
2023/01/01 09:26:55;;;;;;;9.20;3.20;;;;;;;16.08;60.09;100553.12;108609;1260;36312;-76
2023/01/01 09:29:30;;;;;;;7.40;3.40;;;;;;;16.10;59.53;100551.92;108562;1277;37627;-78
2023/01/01 09:32:05;;;;;;;7.60;3.20;;;;;;;16.10;59.01;100553.90;108828;1277;36014;-77
2023/01/01 09:34:45;;;;;;;7.20;3.10;;;;;;;16.06;58.44;100555.33;108604;1264;36966;-77
2023/01/01 09:37:23;;;;;;;7.30;3.40;;;;;;;16.02;58.68;100550.06;108396;1256;36551;-76
2023/01/01 09:39:59;;;;;;;6.00;3.30;;;;;;;16.00;58.63;100549.86;108550;1277;38327;-75
2023/01/01 09:42:41;;;;;;;8.20;3.20;;;;;;;15.98;58.54;100549.25;108568;1277;37014;-75
2023/01/01 09:45:29;;;;;;;7.00;3.60;;;;;;;15.96;58.10;100553.26;108578;1268;38379;-77
2023/01/01 09:48:10;;;;;;;9.40;3.40;;;;;;;15.95;58.28;100547.86;108596;1259;37008;-77
2023/01/01 09:50:51;;;;;;;9.70;3.20;;;;;;;15.95;57.88;100547.00;108613;1276;37132;-76
2023/01/01 09:53:38;;;;;;;6.10;3.20;;;;;;;15.96;58.13;100548.89;108646;1257;38502;-76
2023/01/01 09:56:28;;;;;;;9.30;3.40;;;;;;;16.00;57.84;100549.88;108824;1266;37367;-78
2023/01/01 09:59:15;;;;;;;6.10;3.00;;;;;;;16.13;57.86;100548.39;109135;1276;37179;-74
2023/01/01 10:02:00;;;;;;;6.00;2.90;;;;;;;16.18;57.59;100552.31;108688;1266;37501;-78
2023/01/01 10:04:53;;;;;;;7.40;3.40;;;;;;;16.21;57.27;100547.25;108631;1266;37775;-78
2023/01/01 10:07:45;;;;;;;7.10;3.60;;;;;;;16.23;57.18;100547.47;108491;1260;37178;-77
2023/01/01 10:10:32;;;;;;;10.90;3.40;;;;;;;16.25;56.55;100544.54;108530;1276;37106;-78
2023/01/01 10:13:19;;;;;;;7.00;3.20;;;;;;;16.28;56.63;100541.73;108700;1276;37002;-78
2023/01/01 10:16:02;;;;;;;9.40;3.40;;;;;;;16.31;56.83;100539.45;108669;1267;37255;-78
2023/01/01 10:18:38;;;;;;;6.70;2.70;;;;;;;16.34;56.40;100540.49;108713;1267;37139;-76
2023/01/01 10:21:22;;;;;;;6.30;3.10;;;;;;;16.36;56.27;100539.30;108708;1275;37371;-78
2023/01/01 10:24:02;;;;;;;9.70;3.50;;;;;;;16.38;56.12;100534.96;108679;1276;37699;-78
2023/01/01 10:26:36;;;;;;;5.70;3.10;;;;;;;16.43;56.29;100530.93;108705;1267;36976;-78
2023/01/01 10:29:15;;;;;;;6.80;3.30;;;;;;;16.49;55.86;100525.46;108669;1260;36862;-80
2023/01/01 10:31:49;;;;;;;9.10;2.90;;;;;;;16.54;55.14;100523.83;108708;1254;37663;-75
2023/01/01 10:34:34;;;;;;;7.80;3.00;;;;;;;16.56;55.04;100527.55;108655;1259;36326;-76
2023/01/01 10:37:11;;;;;;;9.50;4.50;;;;;;;16.59;55.14;100521.04;108706;1263;37177;-76
2023/01/01 10:39:49;;;;;;;9.60;5.50;;;;;;;16.61;55.25;100519.66;108450;1260;37151;-75
2023/01/01 10:42:23;;;;;;;5.90;3.10;;;;;;;16.64;54.64;100516.66;108490;1260;37101;-76
2023/01/01 10:45:04;;;;;;;7.80;3.20;;;;;;;16.66;53.70;100521.50;108721;1267;37436;-78
2023/01/01 10:47:37;;;;;;;;;;;;;;;16.68;53.89;100516.96;108731;1276;37115;-76
2023/01/01 10:50:16;;;;;;;5.80;2.70;;;;;;;16.67;54.10;100513.17;108671;1276;39112;-78
2023/01/01 10:52:57;;;;;;;7.40;3.60;;;;;;;16.70;53.86;100512.98;108676;1257;37367;-76
2023/01/01 10:55:31;;;;;;;8.20;3.30;;;;;;;16.72;53.73;100511.30;108657;1267;36561;-75
2023/01/01 10:58:12;;;;;;;10.90;3.10;;;;;;;16.72;53.57;100508.44;108684;1276;37000;-74
2023/01/01 11:00:46;;;;;;;6.50;3.70;;;;;;;16.72;53.53;100500.52;108610;1269;37741;-75
2023/01/01 11:03:26;;;;;;;8.20;3.50;;;;;;;16.72;53.03;100497.20;108677;1267;37061;-77
2023/01/01 11:06:14;;;;;;;6.30;3.10;;;;;;;16.71;53.13;100498.46;108482;1276;188018;-78
2023/01/01 11:08:55;;;;;;;7.40;3.10;;;;;;;16.69;52.79;100500.15;108516;1268;174337;-77
2023/01/01 11:11:40;;;;;;;8.50;3.40;;;;;;;16.68;52.37;100497.77;108536;1276;37112;-77
2023/01/01 11:14:25;;;;;;;6.50;2.80;;;;;;;16.68;52.78;100504.78;108777;1272;36269;-79
2023/01/01 11:17:02;;;;;;;14.50;3.80;;;;;;;16.71;53.02;100503.77;108737;1265;36508;-75
2023/01/01 11:19:44;;;;;;;10.40;3.20;;;;;;;16.76;52.45;100500.30;108650;1276;37131;-74
2023/01/01 11:22:38;;;;;;;7.80;3.80;;;;;;;16.84;52.08;100501.94;108601;1270;37005;-76
2023/01/01 11:25:25;;;;;;;9.20;3.20;;;;;;;16.94;52.12;100499.89;108637;1267;38368;-76
2023/01/01 11:28:22;;;;;;;11.50;4.10;;;;;;;17.00;51.92;100497.36;108717;1258;37156;-78
2023/01/01 11:31:10;;;;;;;12.20;3.40;;;;;;;17.06;51.40;100497.75;108562;1260;37068;-78
2023/01/01 11:33:48;;;;;;;8.60;3.80;;;;;;;17.06;51.70;100495.40;108664;1260;37077;-76
2023/01/01 11:36:28;;;;;;;8.30;3.40;;;;;;;17.05;51.63;100497.61;108703;1267;37032;-77
2023/01/01 11:39:23;;;;;;;7.50;3.30;;;;;;;17.01;51.40;100497.14;108542;1269;36942;-76
2023/01/01 11:41:58;;;;;;;8.30;3.50;;;;;;;16.96;50.99;100493.06;108688;1254;37007;-76
2023/01/01 11:44:41;;;;;;;9.20;3.40;;;;;;;16.93;51.25;100494.11;108693;1276;37103;-76
2023/01/01 11:47:26;;;;;;;7.30;3.00;;;;;;;16.90;51.26;100489.89;108704;1276;37626;-77
2023/01/01 11:50:17;;;;;;;9.80;3.50;;;;;;;16.88;51.16;100491.97;108567;1276;37103;-77
2023/01/01 11:52:53;;;;;;;12.70;3.50;;;;;;;16.84;51.12;100489.08;108693;1276;37360;-77
2023/01/01 11:55:41;;;;;;;8.40;3.00;;;;;;;16.79;51.15;100496.97;108671;1266;37200;-77
2023/01/01 11:58:22;;;;;;;7.70;3.20;;;;;;;16.73;51.31;100500.61;108731;1267;36262;-76
2023/01/01 12:01:00;;;;;;;8.60;3.00;;;;;;;16.70;51.34;100509.60;108540;1264;37121;-76
2023/01/01 12:03:39;;;;;;;11.60;3.50;;;;;;;16.67;51.12;100512.05;108715;1268;36961;-76
2023/01/01 12:06:23;;;;;;;7.80;3.20;;;;;;;16.64;51.18;100512.41;108669;1267;37077;-76
2023/01/01 12:09:07;;;;;;;7.80;3.20;;;;;;;16.63;50.72;100510.73;108528;1257;37607;-73
2023/01/01 12:11:47;;;;;;;9.00;3.30;;;;;;;16.63;51.23;100523.77;108560;1257;37350;-79
2023/01/01 12:14:31;;;;;;;7.60;3.30;;;;;;;16.64;51.49;100526.70;108520;1271;37133;-78